createdAt,value
2018-06-04T00:00:11.247Z,22.65
2018-06-04T00:00:44.378Z,22.85
2018-06-04T00:01:17.530Z,22.40
2018-06-04T00:01:50.637Z,23.07
2018-06-04T00:02:23.969Z,22.05
2018-06-04T00:02:57.084Z,23.38
2018-06-04T00:03:30.241Z,23.50
2018-06-04T00:04:03.380Z,23.30
2018-06-04T00:04:36.556Z,23.40
2018-06-04T00:05:09.846Z,21.87
2018-06-04T00:05:43.024Z,24.10
2018-06-04T00:06:16.511Z,22.05
2018-06-04T00:06:49.624Z,22.82
2018-06-04T00:07:22.710Z,22.55
2018-06-04T00:07:55.822Z,22.65
2018-06-04T00:08:28.933Z,22.85
2018-06-04T00:09:02.302Z,23.20
2018-06-04T00:09:35.458Z,22.80
2018-06-04T00:10:08.646Z,23.77
2018-06-04T00:10:41.822Z,21.82
2018-06-04T00:11:14.937Z,24.25
2018-06-04T00:11:48.627Z,23.70
2018-06-04T00:12:21.702Z,24.87
2018-06-04T00:12:54.849Z,22.77
2018-06-04T00:13:28.017Z,22.60
2018-06-04T00:14:01.809Z,22.87
2018-06-04T00:14:34.925Z,23.60
2018-06-04T00:15:08.167Z,23.00
2018-06-04T00:15:41.288Z,23.07
2018-06-04T00:16:14.455Z,22.32
2018-06-04T00:16:47.624Z,24.92
2018-06-04T00:17:20.901Z,21.90
2018-06-04T00:17:54.042Z,23.30
2018-06-04T00:18:27.553Z,22.02
2018-06-04T00:19:00.712Z,24.95
2018-06-04T00:19:33.824Z,22.32
2018-06-04T00:20:07.816Z,22.75
2018-06-04T00:20:40.901Z,24.60
2018-06-04T00:21:14.053Z,23.02
2018-06-04T00:21:47.231Z,23.65
2018-06-04T00:22:20.946Z,22.58
2018-06-04T00:22:54.167Z,22.60
2018-06-04T00:23:27.312Z,23.60
2018-06-04T00:24:00.574Z,23.00
2018-06-04T00:24:33.661Z,23.83
2018-06-04T00:25:06.743Z,24.57
2018-06-04T00:25:39.824Z,23.20
2018-06-04T00:26:12.944Z,24.45
2018-06-04T00:26:46.131Z,23.85
2018-06-04T00:27:19.708Z,23.65
2018-06-04T00:27:52.832Z,22.25
2018-06-04T00:28:26.013Z,22.60
2018-06-04T00:28:59.287Z,22.85
2018-06-04T00:29:32.415Z,23.70
2018-06-04T00:30:05.828Z,22.82
2018-06-04T00:30:39.023Z,23.40
2018-06-04T00:31:12.116Z,23.95
2018-06-04T00:31:45.277Z,24.25
2018-06-04T00:32:18.555Z,24.23
2018-06-04T00:32:51.688Z,23.73
2018-06-04T00:33:24.815Z,25.05
2018-06-04T00:33:58.087Z,23.57
2018-06-04T00:34:31.249Z,23.77
2018-06-04T00:35:04.437Z,22.58
2018-06-04T00:35:37.690Z,23.90
2018-06-04T00:36:10.783Z,24.20
2018-06-04T00:36:43.974Z,23.98
2018-06-04T00:37:17.076Z,26.05
2018-06-04T00:37:50.338Z,24.92
2018-06-04T00:38:23.441Z,23.18
2018-06-04T00:38:56.803Z,24.45
2018-06-04T00:39:29.900Z,25.60
2018-06-04T00:40:03.048Z,24.55
2018-06-04T00:40:36.217Z,24.00
2018-06-04T00:41:09.347Z,23.12
2018-06-04T00:41:42.448Z,23.10
2018-06-04T00:42:15.553Z,23.32
2018-06-04T00:42:48.939Z,25.45
2018-06-04T00:43:22.104Z,22.25
2018-06-04T00:43:55.409Z,24.80
2018-06-04T00:44:28.554Z,23.55
2018-06-04T00:45:01.693Z,23.15
2018-06-04T00:45:34.820Z,23.75
2018-06-04T00:46:07.997Z,23.22
2018-06-04T00:46:41.176Z,23.50
2018-06-04T00:47:14.281Z,23.90
2018-06-04T00:47:47.333Z,24.70
2018-06-04T00:48:20.530Z,23.55
2018-06-04T00:48:53.693Z,22.42
2018-06-04T00:49:27.035Z,22.67
2018-06-04T00:50:00.099Z,23.30
2018-06-04T00:50:33.184Z,23.25
2018-06-04T00:51:06.509Z,24.72
2018-06-04T00:51:39.585Z,22.37
2018-06-04T00:52:12.884Z,23.77
2018-06-04T00:52:45.976Z,22.60
2018-06-04T00:53:19.053Z,22.45
2018-06-04T00:53:52.366Z,23.92
2018-06-04T00:54:25.686Z,22.80
2018-06-04T00:54:58.948Z,22.90
2018-06-04T00:55:32.603Z,21.33
2018-06-04T00:56:11.351Z,22.27
2018-06-04T00:56:44.536Z,22.80
2018-06-04T00:57:17.938Z,22.98
2018-06-04T00:57:51.505Z,22.58
2018-06-04T00:58:24.568Z,22.93
2018-06-04T00:58:57.667Z,23.05
2018-06-04T00:59:30.784Z,24.25
2018-06-04T01:00:04.165Z,23.75
2018-06-04T01:00:37.319Z,24.65
2018-06-04T01:01:10.397Z,23.57
2018-06-04T01:01:43.580Z,21.82
2018-06-04T01:02:16.671Z,22.48
2018-06-04T01:02:50.424Z,23.20
2018-06-04T01:03:23.550Z,22.10
2018-06-04T01:03:56.785Z,21.82
2018-06-04T01:04:29.892Z,21.35
2018-06-04T01:05:03.067Z,22.50
2018-06-04T01:05:36.168Z,21.87
2018-06-04T01:06:09.273Z,23.40
2018-06-04T01:06:42.347Z,24.40
2018-06-04T01:07:15.422Z,21.37
2018-06-04T01:07:48.724Z,21.65
2018-06-04T01:08:22.020Z,22.15
2018-06-04T01:08:55.152Z,24.20
2018-06-04T01:09:28.486Z,22.77
2018-06-04T01:10:01.735Z,21.23
2018-06-04T01:10:34.928Z,23.38
2018-06-04T01:11:08.642Z,23.32
2018-06-04T01:11:41.898Z,23.40
2018-06-04T01:12:15.062Z,23.22
2018-06-04T01:12:48.371Z,21.85
2018-06-04T01:13:21.479Z,22.15
2018-06-04T01:13:54.615Z,22.32
2018-06-04T01:14:27.703Z,22.27
2018-06-04T01:15:00.955Z,23.35
2018-06-04T01:15:34.088Z,23.87
2018-06-04T01:16:07.348Z,22.20
2018-06-04T01:16:40.483Z,24.30
2018-06-04T01:17:13.698Z,24.27
2018-06-04T01:17:46.863Z,25.10
2018-06-04T01:18:20.348Z,24.32
2018-06-04T01:18:53.891Z,22.93
2018-06-04T01:19:26.987Z,25.10
2018-06-04T01:20:00.130Z,23.42
2018-06-04T01:20:33.385Z,25.08
2018-06-04T01:21:06.852Z,25.40
2018-06-04T01:21:39.943Z,22.87
2018-06-04T01:22:13.274Z,24.00
2018-06-04T01:22:46.404Z,25.35
2018-06-04T01:23:19.808Z,23.75
2018-06-04T01:23:53.053Z,24.02
2018-06-04T01:24:26.257Z,24.12
2018-06-04T01:24:59.419Z,25.32
2018-06-04T01:25:32.516Z,24.40
2018-06-04T01:26:06.561Z,24.70
2018-06-04T01:26:39.639Z,24.00
2018-06-04T01:27:12.750Z,24.85
2018-06-04T01:27:46.208Z,22.50
2018-06-04T01:28:19.344Z,24.82
2018-06-04T01:28:52.696Z,23.15
2018-06-04T01:29:25.783Z,24.55
2018-06-04T01:29:58.900Z,23.83
2018-06-04T01:30:32.120Z,21.95
2018-06-04T01:31:05.296Z,22.42
2018-06-04T01:31:38.475Z,23.00
2018-06-04T01:32:11.650Z,25.20
2018-06-04T01:32:44.767Z,22.65
2018-06-04T01:33:17.877Z,22.10
2018-06-04T01:33:51.186Z,22.50
2018-06-04T01:34:24.487Z,21.68
2018-06-04T01:34:57.606Z,24.07
2018-06-04T01:35:30.721Z,25.00
2018-06-04T01:36:04.138Z,23.32
2018-06-04T01:36:37.232Z,23.73
2018-06-04T01:37:10.392Z,23.10
2018-06-04T01:37:43.492Z,25.40
2018-06-04T01:38:16.612Z,25.30
2018-06-04T01:38:49.784Z,23.70
2018-06-04T01:39:23.221Z,24.35
2018-06-04T01:39:56.452Z,22.90
2018-06-04T01:40:29.559Z,24.35
2018-06-04T01:41:02.757Z,23.18
2018-06-04T01:41:35.893Z,22.67
2018-06-04T01:42:09.019Z,22.37
2018-06-04T01:42:42.101Z,24.00
2018-06-04T01:43:15.540Z,23.05
2018-06-04T01:43:49.348Z,22.70
2018-06-04T01:44:22.455Z,23.02
2018-06-04T01:44:55.665Z,21.60
2018-06-04T01:45:28.746Z,22.95
2018-06-04T01:46:02.056Z,20.40
2018-06-04T01:46:35.135Z,22.90
2018-06-04T01:47:08.517Z,22.65
2018-06-04T01:47:41.597Z,21.48
2018-06-04T01:48:14.691Z,22.87
2018-06-04T01:48:47.949Z,22.07
2018-06-04T01:49:21.127Z,22.35
2018-06-04T01:49:54.286Z,22.00
2018-06-04T01:50:28.196Z,22.42
2018-06-04T01:51:02.171Z,23.50
2018-06-04T01:51:35.488Z,22.65
2018-06-04T01:52:08.939Z,22.37
2018-06-04T01:52:42.037Z,22.05
2018-06-04T01:53:15.296Z,22.22
2018-06-04T01:53:48.496Z,22.60
2018-06-04T01:54:21.638Z,21.33
2018-06-04T01:54:54.724Z,24.55
2018-06-04T01:55:27.833Z,24.45
2018-06-04T01:56:00.903Z,24.20
2018-06-04T01:56:33.978Z,22.52
2018-06-04T01:57:07.146Z,23.95
2018-06-04T01:57:41.232Z,23.92
2018-06-04T01:58:14.356Z,23.18
2018-06-04T01:58:47.590Z,24.23
2018-06-04T01:59:21.045Z,24.67
2018-06-04T01:59:54.200Z,23.70
2018-06-04T02:00:27.366Z,22.62
2018-06-04T02:01:00.604Z,23.30
2018-06-04T02:01:33.728Z,23.85
2018-06-04T02:02:06.959Z,24.05
2018-06-04T02:02:40.081Z,24.52
2018-06-04T02:03:13.196Z,23.67
2018-06-04T02:03:46.292Z,23.77
2018-06-04T02:04:19.499Z,21.65
2018-06-04T02:04:52.600Z,22.10
2018-06-04T02:05:26.152Z,24.63
2018-06-04T02:05:59.535Z,22.73
2018-06-04T02:06:32.640Z,22.40
2018-06-04T02:07:05.755Z,23.65
2018-06-04T02:07:39.075Z,23.25
2018-06-04T02:08:12.241Z,23.05
2018-06-04T02:08:45.408Z,22.58
2018-06-04T02:09:18.601Z,23.92
2018-06-04T02:09:51.783Z,24.35
2018-06-04T02:10:24.876Z,26.50
2018-06-04T02:10:57.999Z,25.43
2018-06-04T02:11:31.088Z,24.50
2018-06-04T02:12:04.183Z,23.10
2018-06-04T02:12:37.344Z,25.43
2018-06-04T02:13:10.569Z,23.85
2018-06-04T02:13:43.683Z,23.45
2018-06-04T02:14:16.859Z,24.20
2018-06-04T02:14:50.019Z,24.90
2018-06-04T02:15:23.248Z,24.23
2018-06-04T02:15:56.719Z,24.25
2018-06-04T02:16:29.812Z,23.07
2018-06-04T02:17:03.105Z,24.70
2018-06-04T02:17:36.587Z,22.17
2018-06-04T02:18:09.732Z,23.73
2018-06-04T02:18:42.844Z,23.32
2018-06-04T02:19:16.128Z,23.55
2018-06-04T02:19:49.211Z,23.00
2018-06-04T02:20:22.479Z,23.30
2018-06-04T02:20:55.611Z,23.67
2018-06-04T02:21:28.837Z,23.42
2018-06-04T02:22:02.013Z,24.40
2018-06-04T02:22:35.178Z,25.43
2018-06-04T02:23:08.364Z,24.80
2018-06-04T02:23:41.536Z,23.40
2018-06-04T02:24:14.620Z,23.60
2018-06-04T02:24:47.892Z,24.35
2018-06-04T02:25:21.078Z,25.12
2018-06-04T02:25:54.174Z,24.32
2018-06-04T02:26:27.560Z,25.00
2018-06-04T02:27:00.664Z,24.40
2018-06-04T02:27:33.752Z,24.87
2018-06-04T02:28:06.884Z,22.82
2018-06-04T02:28:40.003Z,22.52
2018-06-04T02:29:13.090Z,24.55
2018-06-04T02:29:46.451Z,23.85
2018-06-04T02:30:19.673Z,24.25
2018-06-04T02:30:52.786Z,23.90
2018-06-04T02:31:25.881Z,24.50
2018-06-04T02:31:58.996Z,24.15
2018-06-04T02:32:32.080Z,24.15
2018-06-04T02:33:05.511Z,25.23
2018-06-04T02:33:38.764Z,25.08
2018-06-04T02:34:11.935Z,24.35
2018-06-04T02:34:45.237Z,23.98
2018-06-04T02:35:18.375Z,23.65
2018-06-04T02:35:51.468Z,23.27
2018-06-04T02:36:24.773Z,23.95
2018-06-04T02:36:57.895Z,25.00
2018-06-04T02:37:31.025Z,24.47
2018-06-04T02:38:04.137Z,23.10
2018-06-04T02:38:37.351Z,25.05
2018-06-04T02:39:10.547Z,23.77
2018-06-04T02:39:43.649Z,23.73
2018-06-04T02:40:16.741Z,23.50
2018-06-04T02:40:50.067Z,24.15
2018-06-04T02:41:23.203Z,23.70
2018-06-04T02:41:56.436Z,24.27
2018-06-04T02:42:29.571Z,23.67
2018-06-04T02:43:02.659Z,23.32
2018-06-04T02:43:35.826Z,25.50
2018-06-04T02:44:08.934Z,24.80
2018-06-04T02:44:42.044Z,24.50
2018-06-04T02:45:15.138Z,23.62
2018-06-04T02:45:48.372Z,24.47
2018-06-04T02:46:21.503Z,24.30
2018-06-04T02:46:54.721Z,24.63
2018-06-04T02:47:28.004Z,25.55
2018-06-04T02:48:01.091Z,24.45
2018-06-04T02:48:34.248Z,24.10
2018-06-04T02:49:07.449Z,25.68
2018-06-04T02:49:40.547Z,25.27
2018-06-04T02:50:13.691Z,26.27
2018-06-04T02:50:47.004Z,26.45
2018-06-04T02:51:20.162Z,25.88
2018-06-04T02:51:53.270Z,27.32
2018-06-04T02:52:26.516Z,25.17
2018-06-04T02:52:59.809Z,24.70
2018-06-04T02:53:32.924Z,24.57
2018-06-04T02:54:06.077Z,25.55
2018-06-04T02:54:39.754Z,25.08
2018-06-04T02:55:13.022Z,26.42
2018-06-04T02:55:46.129Z,25.72
2018-06-04T02:56:19.376Z,23.90
2018-06-04T02:56:52.547Z,24.07
2018-06-04T02:57:26.336Z,24.10
2018-06-04T02:57:59.532Z,26.25
2018-06-04T02:58:32.715Z,25.30
2018-06-04T02:59:05.816Z,24.47
2018-06-04T02:59:39.057Z,27.07
2018-06-04T03:00:12.156Z,25.77
2018-06-04T03:00:45.243Z,24.90
2018-06-04T03:01:18.356Z,24.77
2018-06-04T03:01:51.469Z,22.45
2018-06-04T03:02:24.585Z,24.95
2018-06-04T03:02:57.859Z,24.65
2018-06-04T03:03:30.954Z,24.57
2018-06-04T03:04:04.092Z,25.43
2018-06-04T03:04:37.503Z,25.85
2018-06-04T03:05:10.995Z,24.18
2018-06-04T03:05:44.472Z,25.55
2018-06-04T03:06:17.563Z,24.95
2018-06-04T03:06:51.047Z,25.72
2018-06-04T03:07:24.129Z,26.25
2018-06-04T03:07:57.368Z,25.25
2018-06-04T03:08:30.911Z,25.12
2018-06-04T03:09:06.304Z,24.57
2018-06-04T03:09:39.403Z,23.92
2018-06-04T03:10:12.520Z,23.40
2018-06-04T03:10:45.843Z,22.98
2018-06-04T03:11:18.984Z,22.50
2018-06-04T03:11:52.539Z,23.10
2018-06-04T03:12:25.680Z,22.58
2018-06-04T03:12:59.043Z,22.05
2018-06-04T03:13:32.142Z,22.00
2018-06-04T03:14:05.994Z,22.42
2018-06-04T03:14:39.107Z,21.37
2018-06-04T03:15:12.666Z,22.82
2018-06-04T03:15:45.797Z,21.95
2018-06-04T03:16:19.052Z,22.20
2018-06-04T03:16:52.334Z,22.45
2018-06-04T03:17:25.421Z,21.48
2018-06-04T03:17:58.568Z,21.45
2018-06-04T03:18:31.871Z,22.67
2018-06-04T03:19:04.944Z,20.82
2018-06-04T03:20:14.678Z,21.05
2018-06-04T03:20:47.836Z,19.77
2018-06-04T03:21:20.955Z,20.15
2018-06-04T03:21:54.317Z,19.82
2018-06-04T03:22:27.407Z,19.73
2018-06-04T03:23:00.532Z,20.70
2018-06-04T03:23:33.749Z,20.43
2018-06-04T03:24:06.885Z,21.40
2018-06-04T03:24:39.985Z,19.20
2018-06-04T03:25:13.303Z,20.80
2018-06-04T03:25:46.451Z,20.55
2018-06-04T03:26:19.553Z,20.30
2018-06-04T03:26:52.680Z,19.77
2018-06-04T03:27:25.967Z,20.02
2018-06-04T03:27:59.508Z,20.68
2018-06-04T03:28:32.657Z,19.87
2018-06-04T03:29:05.787Z,21.82
2018-06-04T03:29:38.880Z,19.55
2018-06-04T03:30:12.799Z,22.55
2018-06-04T03:30:45.988Z,22.90
2018-06-04T03:31:19.060Z,21.87
2018-06-04T03:31:53.065Z,22.10
2018-06-04T03:32:26.857Z,20.50
2018-06-04T03:33:00.543Z,21.35
2018-06-04T03:33:34.339Z,21.27
2018-06-04T03:34:07.483Z,20.65
2018-06-04T03:34:40.561Z,21.45
2018-06-04T03:35:13.883Z,21.05
2018-06-04T03:35:47.024Z,20.32
2018-06-04T03:36:20.237Z,22.32
2018-06-04T03:36:53.653Z,20.92
2018-06-04T03:37:26.830Z,21.90
2018-06-04T03:38:01.367Z,23.47
2018-06-04T03:38:34.477Z,21.70
2018-06-04T03:39:08.626Z,21.77
2018-06-04T03:39:41.947Z,22.22
2018-06-04T03:40:15.045Z,21.37
2018-06-04T03:40:48.160Z,22.22
2018-06-04T03:41:21.411Z,20.88
2018-06-04T03:41:54.515Z,23.52
2018-06-04T03:42:27.599Z,22.32
2018-06-04T03:43:00.767Z,22.50
2018-06-04T03:43:33.883Z,21.50
2018-06-04T03:44:07.163Z,22.90
2018-06-04T03:44:40.879Z,23.12
2018-06-04T03:45:14.468Z,24.23
2018-06-04T03:45:47.750Z,23.10
2018-06-04T03:46:20.861Z,25.45
2018-06-04T03:46:53.972Z,23.95
2018-06-04T03:47:27.545Z,24.00
2018-06-04T03:48:00.646Z,23.40
2018-06-04T03:48:33.825Z,25.02
2018-06-04T03:49:07.000Z,24.05
2018-06-04T03:49:40.170Z,25.08
2018-06-04T03:50:13.376Z,24.98
2018-06-04T03:50:46.538Z,25.17
2018-06-04T03:51:19.714Z,24.18
2018-06-04T03:51:52.908Z,25.17
2018-06-04T03:52:26.168Z,25.55
2018-06-04T03:52:59.243Z,25.00
2018-06-04T03:53:32.552Z,24.55
2018-06-04T03:54:05.659Z,24.45
2018-06-04T03:54:39.820Z,25.75
2018-06-04T03:55:12.917Z,27.73
2018-06-04T03:55:46.145Z,27.45
2018-06-04T03:56:19.368Z,26.65
2018-06-04T03:56:52.771Z,25.48
2018-06-04T03:57:26.208Z,24.75
2018-06-04T03:57:59.337Z,23.45
2018-06-04T03:58:32.446Z,24.35
2018-06-04T03:59:05.689Z,24.92
2018-06-04T03:59:38.805Z,25.30
2018-06-04T04:00:11.914Z,25.32
2018-06-04T04:00:45.011Z,26.87
2018-06-04T04:01:18.136Z,28.05
2018-06-04T04:01:51.380Z,25.30
2018-06-04T04:02:24.489Z,26.93
2018-06-04T04:02:57.670Z,26.30
2018-06-04T04:03:30.737Z,25.55
2018-06-04T04:04:03.844Z,24.63
2018-06-04T04:04:37.513Z,25.00
2018-06-04T04:05:10.655Z,27.32
2018-06-04T04:05:43.833Z,24.47
2018-06-04T04:06:16.942Z,25.50
2018-06-04T04:06:50.098Z,26.50
2018-06-04T04:07:23.423Z,27.17
2018-06-04T04:07:56.604Z,26.27
2018-06-04T04:08:29.776Z,24.52
2018-06-04T04:09:03.174Z,24.65
2018-06-04T04:09:36.477Z,28.00
2018-06-04T04:10:09.592Z,26.80
2018-06-04T04:10:42.834Z,24.85
2018-06-04T04:11:16.020Z,25.40
2018-06-04T04:11:49.128Z,24.63
2018-06-04T04:12:22.226Z,25.20
2018-06-04T04:12:55.645Z,27.25
2018-06-04T04:13:28.822Z,26.30
2018-06-04T04:14:01.939Z,27.80
2018-06-04T04:14:35.180Z,27.80
2018-06-04T04:15:08.279Z,27.20
2018-06-04T04:15:41.430Z,25.95
2018-06-04T04:16:14.713Z,24.77
2018-06-04T04:16:48.036Z,28.00
2018-06-04T04:17:21.277Z,25.77
2018-06-04T04:17:54.673Z,27.15
2018-06-04T04:18:27.786Z,28.62
2018-06-04T04:19:00.905Z,27.05
2018-06-04T04:19:34.613Z,25.10
2018-06-04T04:20:07.714Z,27.45
2018-06-04T04:20:40.954Z,27.65
2018-06-04T04:21:14.109Z,26.75
2018-06-04T04:21:47.920Z,27.30
2018-06-04T04:22:21.040Z,27.30
2018-06-04T04:22:54.287Z,26.07
2018-06-04T04:23:27.456Z,26.52
2018-06-04T04:24:00.580Z,27.30
2018-06-04T04:24:33.782Z,25.97
2018-06-04T04:25:06.909Z,25.90
2018-06-04T04:25:40.172Z,26.55
2018-06-04T04:26:13.345Z,28.27
2018-06-04T04:26:46.543Z,27.50
2018-06-04T04:27:19.709Z,28.15
2018-06-04T04:27:53.061Z,27.13
2018-06-04T04:28:26.347Z,27.90
2018-06-04T04:28:59.594Z,26.15
2018-06-04T04:29:32.768Z,26.65
2018-06-04T04:30:06.344Z,27.80
2018-06-04T04:30:39.636Z,26.93
2018-06-04T04:31:12.863Z,27.22
2018-06-04T04:31:45.977Z,25.32
2018-06-04T04:32:19.989Z,28.23
2018-06-04T04:32:53.125Z,25.72
2018-06-04T04:33:26.237Z,26.70
2018-06-04T04:33:59.351Z,27.22
2018-06-04T04:34:32.560Z,27.40
2018-06-04T04:35:05.691Z,24.85
2018-06-04T04:35:38.938Z,25.30
2018-06-04T04:36:12.211Z,26.10
2018-06-04T04:36:45.303Z,26.05
2018-06-04T04:37:18.391Z,27.62
2018-06-04T04:37:51.791Z,26.87
2018-06-04T04:38:24.915Z,25.60
2018-06-04T04:38:58.005Z,25.68
2018-06-04T04:39:31.139Z,27.17
2018-06-04T04:40:04.218Z,25.02
2018-06-04T04:40:37.380Z,27.42
2018-06-04T04:41:10.504Z,26.20
2018-06-04T04:41:43.623Z,27.73
2018-06-04T04:42:16.872Z,26.27
2018-06-04T04:42:49.967Z,27.60
2018-06-04T04:43:23.300Z,27.65
2018-06-04T04:43:56.596Z,29.52
2018-06-04T04:44:29.875Z,28.87
2018-06-04T04:45:03.133Z,30.48
2018-06-04T04:45:36.243Z,28.25
2018-06-04T04:46:09.367Z,26.57
2018-06-04T04:46:42.470Z,27.98
2018-06-04T04:47:15.556Z,29.80
2018-06-04T04:47:48.961Z,29.12
2018-06-04T04:48:22.100Z,31.17
2018-06-04T04:48:55.207Z,29.10
2018-06-04T04:49:28.392Z,29.60
2018-06-04T04:50:01.869Z,28.50
2018-06-04T04:50:35.051Z,28.67
2018-06-04T04:51:08.216Z,29.75
2018-06-04T04:51:41.318Z,29.18
2018-06-04T04:52:14.450Z,28.80
2018-06-04T04:52:47.636Z,28.90
2018-06-04T04:53:20.735Z,29.15
2018-06-04T04:53:53.806Z,28.98
2018-06-04T04:54:27.503Z,28.60
2018-06-04T04:55:00.894Z,27.42
2018-06-04T04:55:34.473Z,29.07
2018-06-04T04:56:07.748Z,28.23
2018-06-04T04:56:40.958Z,27.93
2018-06-04T04:57:14.072Z,29.60
2018-06-04T04:57:47.301Z,29.75
2018-06-04T04:58:20.577Z,28.60
2018-06-04T04:58:53.772Z,30.48
2018-06-04T04:59:27.245Z,31.02
2018-06-04T05:00:00.412Z,30.08
2018-06-04T05:00:33.561Z,30.43
2018-06-04T05:01:06.722Z,28.83
2018-06-04T05:01:39.791Z,30.12
2018-06-04T05:02:13.031Z,29.72
2018-06-04T05:02:46.222Z,29.63
2018-06-04T05:03:19.397Z,31.33
2018-06-04T05:03:53.267Z,28.80
2018-06-04T05:04:26.463Z,29.90
2018-06-04T05:04:59.765Z,28.42
2018-06-04T05:05:33.017Z,28.27
2018-06-04T05:06:06.114Z,30.12
2018-06-04T05:06:39.386Z,30.60
2018-06-04T05:07:12.568Z,29.82
2018-06-04T05:07:46.232Z,30.00
2018-06-04T05:08:19.507Z,29.63
2018-06-04T05:08:53.300Z,29.05
2018-06-04T05:09:26.498Z,30.75
2018-06-04T05:09:59.738Z,28.27
2018-06-04T05:10:32.933Z,26.55
2018-06-04T05:11:06.085Z,29.23
2018-06-04T05:11:40.109Z,28.62
2018-06-04T05:12:13.268Z,28.70
2018-06-04T05:12:46.622Z,28.60
2018-06-04T05:13:20.019Z,31.00
2018-06-04T05:13:53.790Z,29.85
2018-06-04T05:14:27.583Z,30.08
2018-06-04T05:15:00.836Z,29.20
2018-06-04T05:15:34.838Z,30.10
2018-06-04T05:16:07.972Z,30.43
2018-06-04T05:16:41.186Z,29.50
2018-06-04T05:17:14.398Z,28.32
2018-06-04T05:17:47.898Z,29.37
2018-06-04T05:18:21.339Z,29.72
2018-06-04T05:18:54.698Z,28.85
2018-06-04T05:19:27.804Z,29.05
2018-06-04T05:20:01.182Z,29.72
2018-06-04T05:20:34.345Z,28.15
2018-06-04T05:21:07.479Z,28.23
2018-06-04T05:21:40.721Z,28.57
2018-06-04T05:22:14.236Z,27.40
2018-06-04T05:22:47.412Z,29.50
2018-06-04T05:23:20.681Z,29.02
2018-06-04T05:23:53.811Z,27.10
2018-06-04T05:24:26.907Z,27.80
2018-06-04T05:25:00.026Z,29.02
2018-06-04T05:25:33.201Z,28.77
2018-06-04T05:26:06.453Z,30.23
2018-06-04T05:26:39.763Z,30.17
2018-06-04T05:27:12.879Z,28.70
2018-06-04T05:27:46.013Z,29.10
2018-06-04T05:28:19.187Z,30.60
2018-06-04T05:28:52.318Z,29.27
2018-06-04T05:29:25.538Z,29.60
2018-06-04T05:29:59.154Z,28.12
2018-06-04T05:30:32.897Z,28.15
2018-06-04T05:31:06.010Z,29.57
2018-06-04T05:31:39.385Z,29.30
2018-06-04T05:32:12.768Z,28.70
2018-06-04T05:32:45.889Z,29.57
2018-06-04T05:33:19.047Z,28.40
2018-06-04T05:33:52.445Z,28.55
2018-06-04T05:34:25.970Z,29.30
2018-06-04T05:34:59.095Z,27.52
2018-06-04T05:35:32.383Z,29.18
2018-06-04T05:36:05.517Z,29.98
2018-06-04T05:36:39.186Z,28.62
2018-06-04T05:37:12.467Z,28.85
2018-06-04T05:37:45.666Z,29.00
2018-06-04T05:38:18.825Z,30.32
2018-06-04T05:38:52.031Z,29.50
2018-06-04T05:39:25.222Z,29.80
2018-06-04T05:39:58.321Z,29.55
2018-06-04T05:40:31.668Z,27.93
2018-06-04T05:41:04.781Z,29.57
2018-06-04T05:41:37.932Z,29.15
2018-06-04T05:42:11.043Z,29.85
2018-06-04T05:42:44.277Z,28.00
2018-06-04T05:43:17.741Z,28.35
2018-06-04T05:43:50.897Z,30.05
2018-06-04T05:44:24.128Z,28.25
2018-06-04T05:44:57.311Z,28.83
2018-06-04T05:45:31.068Z,29.60
2018-06-04T05:46:04.289Z,28.07
2018-06-04T05:46:37.494Z,28.98
2018-06-04T05:47:10.629Z,29.25
2018-06-04T05:47:43.912Z,30.88
2018-06-04T05:48:17.696Z,29.12
2018-06-04T05:48:50.816Z,29.10
2018-06-04T05:49:24.268Z,29.00
2018-06-04T05:49:57.505Z,29.48
2018-06-04T05:50:30.678Z,29.67
2018-06-04T05:51:03.798Z,28.65
2018-06-04T05:51:36.902Z,29.87
2018-06-04T05:52:10.007Z,30.12
2018-06-04T05:52:43.328Z,29.67
2018-06-04T05:53:16.520Z,28.60
2018-06-04T05:53:49.820Z,28.10
2018-06-04T05:54:23.100Z,27.48
2018-06-04T05:54:56.238Z,29.82
2018-06-04T05:55:29.512Z,28.47
2018-06-04T05:56:02.693Z,29.05
2018-06-04T05:56:35.955Z,26.85
2018-06-04T05:57:09.086Z,28.00
2018-06-04T05:57:42.235Z,29.98
2018-06-04T05:58:15.445Z,30.02
2018-06-04T05:58:48.621Z,29.12
2018-06-04T05:59:22.192Z,27.98
2018-06-04T05:59:55.677Z,29.82
2018-06-04T06:00:28.835Z,29.87
2018-06-04T06:01:02.222Z,27.40
2018-06-04T06:01:35.361Z,27.20
2018-06-04T06:02:08.576Z,25.77
2018-06-04T06:02:41.720Z,27.95
2018-06-04T06:03:15.294Z,28.62
2018-06-04T06:03:48.447Z,28.90
2018-06-04T06:04:21.600Z,27.98
2018-06-04T06:04:54.704Z,29.05
2018-06-04T06:05:28.008Z,27.52
2018-06-04T06:06:01.297Z,25.62
2018-06-04T06:06:35.202Z,26.12
2018-06-04T06:07:08.379Z,24.80
2018-06-04T06:07:41.625Z,24.87
2018-06-04T06:08:15.340Z,26.20
2018-06-04T06:08:48.445Z,25.00
2018-06-04T06:09:21.767Z,24.67
2018-06-04T06:09:55.541Z,24.47
2018-06-04T06:10:28.699Z,22.87
2018-06-04T06:11:01.920Z,22.90
2018-06-04T06:11:36.017Z,24.87
2018-06-04T06:12:09.121Z,26.75
2018-06-04T06:12:42.383Z,25.97
2018-06-04T06:13:15.958Z,25.00
2018-06-04T06:13:49.042Z,26.15
2018-06-04T06:14:22.156Z,23.32
2018-06-04T06:14:55.325Z,24.02
2018-06-04T06:15:28.504Z,25.08
2018-06-04T06:16:01.740Z,24.25
2018-06-04T06:16:36.241Z,24.63
2018-06-04T06:17:09.596Z,23.73
2018-06-04T06:17:42.791Z,23.80
2018-06-04T06:18:17.511Z,24.85
2018-06-04T06:18:50.597Z,24.87
2018-06-04T06:19:25.939Z,25.95
2018-06-04T06:19:59.119Z,25.35
2018-06-04T06:20:32.399Z,25.88
2018-06-04T06:21:05.713Z,26.55
2018-06-04T06:21:39.230Z,27.85
2018-06-04T06:22:14.289Z,25.23
2018-06-04T06:22:47.976Z,24.72
2018-06-04T06:23:21.106Z,26.07
2018-06-04T06:23:54.299Z,26.95
2018-06-04T06:24:28.266Z,25.08
2018-06-04T06:25:01.783Z,24.45
2018-06-04T06:25:34.953Z,25.68
2018-06-04T06:26:08.203Z,23.83
2018-06-04T06:26:41.500Z,23.57
2018-06-04T06:27:14.616Z,25.20
2018-06-04T06:28:18.308Z,23.05
2018-06-04T06:28:51.709Z,22.05
2018-06-04T06:29:24.870Z,19.02
2018-06-04T06:29:58.068Z,19.70
2018-06-04T06:30:31.189Z,19.87
2018-06-04T06:31:04.961Z,18.50
2018-06-04T06:31:38.469Z,18.85
2018-06-04T06:32:12.501Z,20.40
2018-06-04T06:32:45.599Z,19.95
2018-06-04T06:33:18.774Z,19.12
2018-06-04T06:33:52.075Z,20.50
2018-06-04T06:34:25.170Z,19.42
2018-06-04T06:34:58.286Z,17.67
2018-06-04T06:35:32.048Z,20.77
2018-06-04T06:36:05.185Z,19.80
2018-06-04T06:36:39.121Z,17.92
2018-06-04T06:37:12.230Z,20.50
2018-06-04T06:37:45.403Z,21.48
2018-06-04T06:38:18.484Z,19.90
2018-06-04T06:38:51.629Z,19.80
2018-06-04T06:39:24.808Z,20.15
2018-06-04T06:39:58.140Z,22.15
2018-06-04T06:40:33.215Z,20.45
2018-06-04T06:41:07.165Z,19.55
2018-06-04T06:41:40.282Z,18.98
2018-06-04T06:42:13.407Z,20.12
2018-06-04T06:42:46.535Z,20.40
2018-06-04T06:43:19.668Z,16.85
2018-06-04T06:43:53.167Z,19.05
2018-06-04T06:44:26.448Z,18.50
2018-06-04T06:44:59.583Z,20.17
2018-06-04T06:45:32.680Z,17.17
2018-06-04T06:46:06.556Z,18.25
2018-06-04T06:46:40.568Z,20.30
2018-06-04T06:47:14.094Z,20.37
2018-06-04T06:47:47.855Z,21.85
2018-06-04T06:48:22.618Z,20.37
2018-06-04T06:48:55.793Z,19.77
2018-06-04T06:49:29.352Z,20.65
2018-06-04T06:50:02.562Z,20.55
2018-06-04T06:50:35.663Z,18.80
2018-06-04T06:51:08.765Z,19.25
2018-06-04T06:51:42.579Z,19.62
2018-06-04T06:52:16.400Z,20.00
2018-06-04T06:52:49.828Z,20.62
2018-06-04T06:53:23.339Z,21.25
2018-06-04T06:53:56.594Z,19.25
2018-06-04T06:54:29.764Z,20.35
2018-06-04T06:55:02.877Z,20.97
2018-06-04T06:55:36.056Z,22.02
2018-06-04T06:56:09.274Z,20.02
2018-06-04T06:56:42.389Z,20.70
2018-06-04T06:57:16.810Z,20.08
2018-06-04T06:57:50.041Z,19.60
2018-06-04T06:58:23.228Z,21.17
2018-06-04T06:58:56.402Z,20.15
2018-06-04T06:59:29.544Z,19.10
2018-06-04T07:00:02.701Z,19.62
2018-06-04T07:00:36.191Z,16.97
2018-06-04T07:01:09.383Z,16.07
2018-06-04T07:01:42.498Z,17.27
2018-06-04T07:02:15.771Z,17.60
2018-06-04T07:02:49.767Z,17.50
2018-06-04T07:03:22.954Z,18.30
2018-06-04T07:03:56.211Z,18.77
2018-06-04T07:04:29.332Z,19.20
2018-06-04T07:05:02.542Z,20.27
2018-06-04T07:05:35.710Z,20.57
2018-06-04T07:06:09.003Z,18.35
2018-06-04T07:06:42.234Z,18.65
2018-06-04T07:07:15.553Z,17.67
2018-06-04T07:07:48.765Z,17.73
2018-06-04T07:08:21.866Z,18.70
2018-06-04T07:08:55.043Z,18.42
2018-06-04T07:09:28.294Z,17.48